Time;durP1;ratioP1;P1;durP2;ratioP2;P2;SDS_P1;SDS_P2;PMS_P1;PMS_P2;Temp;Humidity;BMP_temperature;BMP_pressure;BME280_temperature;BME280_humidity;BME280_pressure;Samples;Min_cycle;Max_cycle;Signal;HPM_P1;HPM_P2
2023/11/07 00:00:43;;;;;;;0.70;0.50;;;7.40;99.90;;;;;;5062140;28;20032;-81
2023/11/07 00:03:09;;;;;;;2.63;0.60;;;7.40;99.90;;;;;;5064262;28;20040;-81
2023/11/07 00:05:35;;;;;;;2.47;0.87;;;7.40;99.90;;;;;;5044814;28;20167;-81
2023/11/07 00:08:00;;;;;;;2.93;0.80;;;7.40;99.90;;;;;;5063084;28;20506;-80
2023/11/07 00:10:28;;;;;;;0.80;0.60;;;7.40;99.90;;;;;;5043318;28;20154;-81
2023/11/07 00:12:54;;;;;;;0.87;0.57;;;7.50;99.90;;;;;;5063251;28;20020;-81
2023/11/07 00:15:20;;;;;;;1.17;0.60;;;7.40;99.90;;;;;;5061425;28;20035;-80
2023/11/07 00:17:46;;;;;;;1.33;0.40;;;7.40;99.90;;;;;;5063134;28;20044;-81
2023/11/07 00:20:12;;;;;;;1.13;0.70;;;7.40;99.90;;;;;;5065592;28;20034;-81
2023/11/07 00:22:38;;;;;;;1.27;0.60;;;7.40;99.90;;;;;;5066243;28;20028;-81
2023/11/07 00:25:05;;;;;;;4.23;0.70;;;7.30;99.90;;;;;;5061426;28;20039;-81
2023/11/07 00:27:30;;;;;;;1.73;0.70;;;7.30;99.90;;;;;;5062719;28;20485;-81
2023/11/07 00:29:56;;;;;;;0.90;0.60;;;7.30;99.90;;;;;;5061455;28;20277;-82
2023/11/07 00:32:22;;;;;;;0.87;0.60;;;7.20;99.90;;;;;;5062149;28;20024;-81
2023/11/07 00:34:47;;;;;;;1.80;0.53;;;7.20;99.90;;;;;;5061664;28;20060;-81
2023/11/07 00:37:13;;;;;;;1.50;0.60;;;7.20;99.90;;;;;;5062657;28;20028;-81
2023/11/07 00:39:39;;;;;;;1.03;0.60;;;7.20;99.90;;;;;;5063034;28;20027;-81
2023/11/07 00:42:05;;;;;;;2.20;0.70;;;7.20;99.90;;;;;;5061261;28;20059;-81
2023/11/07 00:44:31;;;;;;;1.60;0.70;;;7.20;99.90;;;;;;5061170;28;20052;-81
2023/11/07 00:46:57;;;;;;;0.50;0.50;;;7.20;99.90;;;;;;5060646;28;20064;-81
2023/11/07 00:49:23;;;;;;;1.00;0.70;;;7.20;99.90;;;;;;5061768;28;20032;-81
2023/11/07 00:51:49;;;;;;;1.53;0.67;;;7.20;99.90;;;;;;5060913;28;20033;-81
2023/11/07 00:54:14;;;;;;;1.13;0.50;;;7.20;99.90;;;;;;5060685;28;20024;-81
2023/11/07 00:56:41;;;;;;;1.83;0.70;;;7.20;99.90;;;;;;5061619;28;20021;-81
2023/11/07 00:59:07;;;;;;;0.73;0.50;;;7.20;99.90;;;;;;5058776;28;20112;-81
2023/11/07 01:01:32;;;;;;;1.60;0.50;;;7.20;99.90;;;;;;5060511;28;20139;-81
2023/11/07 01:03:58;;;;;;;1.53;0.60;;;7.20;99.90;;;;;;5061416;28;20032;-81
2023/11/07 01:06:24;;;;;;;1.50;0.50;;;7.20;99.90;;;;;;5059502;28;20025;-82
2023/11/07 01:08:49;;;;;;;0.60;0.60;;;7.20;99.90;;;;;;5061172;28;20028;-81
2023/11/07 01:11:15;;;;;;;1.03;0.60;;;7.20;99.90;;;;;;5060235;28;20029;-81
2023/11/07 01:13:40;;;;;;;1.20;0.70;;;7.20;99.90;;;;;;5060646;28;20098;-81
2023/11/07 01:16:06;;;;;;;2.70;0.77;;;7.20;99.90;;;;;;5060278;28;20025;-81
2023/11/07 01:18:32;;;;;;;1.70;1.00;;;7.10;99.90;;;;;;5060096;28;20075;-81
2023/11/07 01:20:58;;;;;;;3.70;1.17;;;7.10;99.90;;;;;;5060936;28;20063;-81
2023/11/07 01:23:23;;;;;;;1.33;1.10;;;7.10;99.90;;;;;;5060593;28;20032;-81
2023/11/07 01:25:49;;;;;;;2.13;0.77;;;7.10;99.90;;;;;;5062393;28;20508;-82
2023/11/07 01:28:15;;;;;;;1.30;0.80;;;7.10;99.90;;;;;;5062638;28;20027;-81
2023/11/07 01:30:41;;;;;;;1.73;0.60;;;7.00;99.90;;;;;;5062436;28;20036;-81
2023/11/07 01:33:06;;;;;;;0.90;0.63;;;7.00;99.90;;;;;;5061015;28;20028;-81
2023/11/07 01:35:32;;;;;;;2.60;0.70;;;7.00;99.90;;;;;;5061608;28;20066;-81
2023/11/07 01:37:57;;;;;;;1.03;0.80;;;7.00;99.90;;;;;;5061765;28;20090;-81
2023/11/07 01:40:23;;;;;;;1.43;0.60;;;6.90;99.90;;;;;;5060970;28;20021;-81
2023/11/07 01:42:48;;;;;;;4.10;1.13;;;6.90;99.90;;;;;;5061387;28;20039;-81
2023/11/07 01:45:15;;;;;;;0.63;0.50;;;6.90;99.90;;;;;;5062862;28;20097;-81
2023/11/07 01:47:43;;;;;;;0.50;0.50;;;6.90;99.90;;;;;;5063978;28;20035;-81
2023/11/07 01:50:13;;;;;;;0.70;0.63;;;6.80;99.90;;;;;;5061732;28;20044;-81
2023/11/07 01:52:39;;;;;;;1.23;0.63;;;6.80;99.90;;;;;;5061687;28;20399;-80
2023/11/07 01:55:13;;;;;;;1.50;0.70;;;6.80;99.90;;;;;;5062124;28;20435;-80
2023/11/07 01:57:42;;;;;;;0.70;0.60;;;6.80;99.90;;;;;;5060629;28;20565;-80
2023/11/07 02:00:11;;;;;;;0.90;0.70;;;6.80;99.90;;;;;;5061599;28;20048;-80
2023/11/07 02:02:40;;;;;;;1.57;0.70;;;6.70;99.90;;;;;;5062921;28;20111;-81
2023/11/07 02:05:08;;;;;;;1.10;0.80;;;6.70;99.90;;;;;;5062153;28;20016;-80
2023/11/07 02:07:34;;;;;;;1.33;0.60;;;6.70;99.90;;;;;;5063935;28;20039;-81
2023/11/07 02:09:59;;;;;;;0.97;0.70;;;6.70;99.90;;;;;;5063682;28;20033;-81
2023/11/07 02:12:25;;;;;;;1.13;0.70;;;6.70;99.90;;;;;;5065019;28;20025;-80
2023/11/07 02:14:51;;;;;;;0.93;0.60;;;6.80;99.90;;;;;;5073054;28;20148;-80
2023/11/07 02:17:17;;;;;;;1.27;0.70;;;6.70;99.90;;;;;;5077245;28;20079;-80
2023/11/07 02:19:42;;;;;;;1.13;0.70;;;6.80;99.90;;;;;;5076643;28;20424;-79
2023/11/07 02:22:10;;;;;;;0.80;0.70;;;6.80;99.90;;;;;;5067410;28;20033;-80
2023/11/07 02:24:36;;;;;;;2.20;0.90;;;6.80;99.90;;;;;;5066768;28;20083;-81
2023/11/07 02:27:01;;;;;;;0.60;0.60;;;6.80;99.90;;;;;;5065481;28;20016;-81
2023/11/07 02:29:28;;;;;;;1.37;0.50;;;6.80;99.90;;;;;;5063833;28;21461;-81
2023/11/07 02:31:54;;;;;;;1.23;0.60;;;6.80;99.90;;;;;;5063446;28;20037;-80
2023/11/07 02:34:19;;;;;;;0.80;0.60;;;6.80;99.90;;;;;;5063767;28;20091;-80
2023/11/07 02:36:45;;;;;;;0.60;0.50;;;6.80;99.90;;;;;;5063944;28;20454;-80
2023/11/07 02:39:12;;;;;;;0.60;0.60;;;6.80;99.90;;;;;;5063381;28;20032;-81
2023/11/07 02:41:38;;;;;;;0.87;0.60;;;6.80;99.90;;;;;;5063714;28;20020;-80
2023/11/07 02:44:04;;;;;;;0.80;0.60;;;6.80;99.90;;;;;;5063723;28;20086;-81
2023/11/07 02:46:30;;;;;;;1.27;0.90;;;6.80;99.90;;;;;;5063205;28;20028;-80
2023/11/07 02:48:55;;;;;;;0.83;0.60;;;6.80;99.90;;;;;;5061765;28;21155;-81
2023/11/07 02:51:22;;;;;;;0.53;0.50;;;6.90;99.90;;;;;;5061280;28;20033;-80
2023/11/07 02:53:50;;;;;;;0.50;0.50;;;6.90;99.90;;;;;;5062486;28;20063;-80
2023/11/07 02:56:17;;;;;;;1.00;0.63;;;6.90;99.90;;;;;;5062753;28;20029;-80
2023/11/07 02:58:43;;;;;;;0.77;0.50;;;6.90;99.90;;;;;;5060402;28;20021;-80
2023/11/07 03:01:09;;;;;;;1.60;0.70;;;6.90;99.90;;;;;;5062233;28;20051;-80
2023/11/07 03:03:35;;;;;;;1.43;0.50;;;6.90;99.90;;;;;;5062348;28;20020;-81
2023/11/07 03:06:01;;;;;;;0.50;0.50;;;6.90;99.90;;;;;;5061678;28;20151;-80
2023/11/07 03:08:27;;;;;;;1.07;0.60;;;6.90;99.90;;;;;;5062062;28;20028;-81
2023/11/07 03:10:53;;;;;;;0.97;0.60;;;6.80;99.90;;;;;;5060976;28;21071;-80
2023/11/07 03:13:20;;;;;;;1.27;0.60;;;6.80;99.90;;;;;;5061012;28;20056;-80
2023/11/07 03:15:47;;;;;;;0.77;0.60;;;6.80;99.90;;;;;;5061741;28;20067;-80
2023/11/07 03:18:13;;;;;;;1.17;0.70;;;6.80;99.90;;;;;;5059618;28;20033;-81
2023/11/07 03:20:40;;;;;;;0.60;0.60;;;6.80;99.90;;;;;;5061825;28;20027;-81
2023/11/07 03:23:05;;;;;;;0.60;0.60;;;6.80;99.90;;;;;;5059962;28;20067;-81
2023/11/07 03:25:31;;;;;;;1.57;0.60;;;6.80;99.90;;;;;;5061174;28;20038;-81
2023/11/07 03:27:57;;;;;;;0.40;0.40;;;6.80;99.90;;;;;;5061635;28;20143;-81
2023/11/07 03:30:22;;;;;;;0.80;0.50;;;6.80;99.90;;;;;;5061445;28;20033;-80
2023/11/07 03:32:48;;;;;;;1.10;0.50;;;6.90;99.90;;;;;;5063607;28;20066;-81
2023/11/07 03:35:14;;;;;;;0.80;0.50;;;6.90;99.90;;;;;;5062735;28;20111;-81
2023/11/07 03:37:39;;;;;;;0.50;0.50;;;6.90;99.90;;;;;;5064260;28;20025;-81
2023/11/07 03:40:06;;;;;;;1.30;0.70;;;6.90;99.90;;;;;;5064530;28;20105;-80
2023/11/07 03:42:32;;;;;;;0.83;0.60;;;6.90;99.90;;;;;;5067012;28;20079;-81
2023/11/07 03:44:58;;;;;;;2.43;1.43;;;6.90;99.90;;;;;;5063931;28;20155;-81
2023/11/07 03:47:23;;;;;;;1.73;0.70;;;6.90;99.90;;;;;;5065863;28;20063;-81
2023/11/07 03:49:49;;;;;;;1.57;0.40;;;7.00;99.90;;;;;;5063215;28;20035;-80
2023/11/07 03:52:15;;;;;;;1.07;0.60;;;7.00;99.90;;;;;;5064323;28;20066;-81
2023/11/07 03:54:41;;;;;;;0.50;0.40;;;7.00;99.90;;;;;;5061096;28;20029;-81
2023/11/07 03:57:07;;;;;;;2.23;0.60;;;7.10;99.90;;;;;;5060741;28;20036;-81
2023/11/07 03:59:32;;;;;;;1.67;0.83;;;7.10;99.90;;;;;;5060810;28;20071;-81
2023/11/07 04:02:00;;;;;;;0.83;0.60;;;7.10;99.90;;;;;;5064054;28;20078;-80
2023/11/07 04:04:26;;;;;;;0.90;0.50;;;7.10;99.90;;;;;;5063607;28;20527;-80
2023/11/07 04:06:52;;;;;;;0.93;0.57;;;7.10;99.90;;;;;;5062939;28;20549;-81
2023/11/07 04:09:18;;;;;;;0.57;0.50;;;7.10;99.90;;;;;;5062228;28;20012;-81
2023/11/07 04:11:44;;;;;;;0.80;0.50;;;7.20;99.90;;;;;;5063411;28;20056;-81
2023/11/07 04:14:10;;;;;;;1.10;0.60;;;7.20;99.90;;;;;;5062342;28;20052;-81
2023/11/07 04:16:36;;;;;;;1.70;0.70;;;7.20;99.90;;;;;;5061736;28;20044;-80
2023/11/07 04:19:02;;;;;;;2.43;0.70;;;7.20;99.90;;;;;;5062266;28;20024;-80
2023/11/07 04:21:28;;;;;;;1.43;0.67;;;7.20;99.90;;;;;;5061482;28;20033;-81
2023/11/07 04:23:53;;;;;;;1.37;0.57;;;7.20;99.90;;;;;;5058277;28;20038;-81
2023/11/07 04:26:19;;;;;;;0.80;0.60;;;7.20;99.90;;;;;;5059017;28;20024;-80
2023/11/07 04:28:44;;;;;;;1.07;0.90;;;7.30;99.90;;;;;;5058517;28;20021;-81
2023/11/07 04:31:33;;;;;;;0.70;0.67;;;7.30;99.90;;;;;;5059913;28;20032;-81
2023/11/07 04:33:58;;;;;;;0.70;0.60;;;7.30;99.90;;;;;;5057518;28;20515;-81
2023/11/07 04:36:24;;;;;;;1.17;0.80;;;7.30;99.90;;;;;;5060250;28;20031;-80
2023/11/07 04:38:50;;;;;;;0.77;0.60;;;7.40;99.90;;;;;;5058199;28;20032;-80
2023/11/07 04:41:16;;;;;;;0.57;0.57;;;7.40;99.90;;;;;;5059688;28;20537;-80
2023/11/07 04:43:43;;;;;;;2.43;0.70;;;7.40;99.90;;;;;;5060314;28;20036;-81
2023/11/07 04:46:10;;;;;;;1.87;0.60;;;7.40;99.90;;;;;;5060051;28;20024;-80
2023/11/07 04:48:38;;;;;;;1.50;0.83;;;7.40;99.90;;;;;;5059813;28;20108;-80
2023/11/07 04:51:04;;;;;;;1.47;0.80;;;7.50;99.90;;;;;;5060471;28;20033;-79
2023/11/07 04:53:30;;;;;;;1.80;1.10;;;7.50;99.90;;;;;;5059101;28;20031;-81
2023/11/07 04:55:56;;;;;;;1.40;0.70;;;7.40;99.90;;;;;;5059044;28;20097;-81
2023/11/07 04:58:25;;;;;;;1.10;0.70;;;7.50;99.90;;;;;;5058451;28;20036;-81
2023/11/07 05:00:53;;;;;;;2.90;0.73;;;7.40;99.90;;;;;;5064552;28;20032;-80
2023/11/07 05:03:18;;;;;;;2.13;0.90;;;7.40;99.90;;;;;;5066225;28;20117;-80
2023/11/07 05:05:44;;;;;;;1.73;0.80;;;7.40;99.90;;;;;;5066431;28;20138;-81
2023/11/07 05:08:10;;;;;;;1.20;0.80;;;7.40;99.90;;;;;;5067244;28;20291;-80
2023/11/07 05:10:35;;;;;;;2.03;0.90;;;7.40;99.90;;;;;;5071341;28;20025;-81
2023/11/07 05:13:01;;;;;;;1.80;0.60;;;7.30;99.90;;;;;;5082083;28;20043;-79
2023/11/07 05:15:26;;;;;;;2.30;0.60;;;7.40;99.90;;;;;;5081583;28;20059;-80
2023/11/07 05:17:54;;;;;;;0.67;0.50;;;7.30;99.90;;;;;;5070955;28;20509;-81
2023/11/07 05:20:20;;;;;;;2.43;1.07;;;7.30;99.90;;;;;;5062437;28;20079;-81
2023/11/07 05:22:45;;;;;;;1.70;1.10;;;7.30;99.90;;;;;;5061377;28;20091;-81
2023/11/07 05:25:11;;;;;;;2.63;1.40;;;7.30;99.90;;;;;;5056792;28;20013;-81
2023/11/07 05:27:36;;;;;;;4.27;1.90;;;7.30;99.90;;;;;;5059945;28;20378;-81
2023/11/07 05:30:02;;;;;;;3.03;1.90;;;7.20;99.90;;;;;;5059350;28;20109;-81
2023/11/07 05:32:28;;;;;;;2.20;1.43;;;7.20;99.90;;;;;;5059727;28;20559;-81
2023/11/07 05:34:53;;;;;;;2.17;1.40;;;7.20;99.90;;;;;;5058532;28;20147;-81
2023/11/07 05:37:21;;;;;;;1.43;0.93;;;7.20;99.90;;;;;;5049960;28;20025;-80
2023/11/07 05:39:47;;;;;;;2.47;0.93;;;7.20;99.90;;;;;;5055909;28;20025;-81
2023/11/07 05:42:12;;;;;;;3.67;0.90;;;7.10;99.90;;;;;;5056151;28;20059;-81
2023/11/07 05:44:38;;;;;;;1.43;0.93;;;7.10;99.90;;;;;;5057390;28;20039;-82
2023/11/07 05:47:04;;;;;;;1.47;1.07;;;7.10;99.90;;;;;;5056462;28;20036;-82
2023/11/07 05:49:30;;;;;;;1.87;0.90;;;7.10;99.90;;;;;;5060818;28;20033;-81
2023/11/07 05:51:56;;;;;;;3.83;1.00;;;7.00;99.90;;;;;;5059821;28;20403;-81
2023/11/07 05:54:22;;;;;;;1.53;0.90;;;7.00;99.90;;;;;;5061215;28;20029;-81
2023/11/07 05:56:48;;;;;;;3.10;1.03;;;7.00;99.90;;;;;;5060567;28;20036;-81
2023/11/07 05:59:13;;;;;;;1.90;1.03;;;7.00;99.90;;;;;;5058058;28;20024;-81
2023/11/07 06:01:40;;;;;;;1.87;1.00;;;6.90;99.90;;;;;;5059544;28;20036;-81
2023/11/07 06:04:08;;;;;;;1.90;1.20;;;6.90;99.90;;;;;;5059504;28;20027;-81
2023/11/07 06:06:34;;;;;;;2.23;1.20;;;6.90;99.90;;;;;;5059300;28;20037;-81
2023/11/07 06:08:59;;;;;;;2.37;1.10;;;6.80;99.90;;;;;;5059256;28;20058;-81
2023/11/07 06:11:25;;;;;;;2.30;1.27;;;6.80;99.90;;;;;;5060051;28;20051;-81
2023/11/07 06:13:50;;;;;;;4.00;1.50;;;6.80;99.90;;;;;;5058277;28;21353;-81
2023/11/07 06:16:16;;;;;;;2.10;1.17;;;6.80;99.90;;;;;;5056624;28;20046;-81
2023/11/07 06:18:41;;;;;;;2.90;1.00;;;6.80;99.90;;;;;;5060785;28;20119;-81
2023/11/07 06:21:08;;;;;;;2.50;1.10;;;6.80;99.90;;;;;;5057240;28;20040;-81
2023/11/07 06:23:33;;;;;;;2.13;1.00;;;6.80;99.90;;;;;;5057945;28;20044;-81
2023/11/07 06:25:59;;;;;;;1.73;1.40;;;6.80;99.90;;;;;;5059807;28;20031;-81
2023/11/07 06:28:24;;;;;;;3.13;1.20;;;6.80;99.90;;;;;;5061719;28;20025;-81
2023/11/07 06:30:51;;;;;;;3.10;0.97;;;6.80;99.90;;;;;;5060459;28;20038;-81
2023/11/07 06:33:17;;;;;;;1.70;0.90;;;6.80;99.90;;;;;;5058175;28;20013;-80
2023/11/07 06:35:44;;;;;;;2.07;1.10;;;6.80;99.90;;;;;;5061137;28;20341;-81
2023/11/07 06:38:10;;;;;;;2.77;1.10;;;6.80;99.90;;;;;;5062117;28;20415;-80
2023/11/07 06:40:35;;;;;;;2.50;1.00;;;6.90;99.90;;;;;;5061768;28;20037;-81
2023/11/07 06:43:03;;;;;;;2.03;0.97;;;6.80;99.90;;;;;;5059615;28;21689;-80
2023/11/07 06:45:29;;;;;;;0.70;0.70;;;6.90;99.90;;;;;;5061919;28;20104;-81
2023/11/07 06:47:54;;;;;;;0.80;0.80;;;6.90;99.90;;;;;;5059938;28;20148;-81
2023/11/07 06:50:20;;;;;;;2.17;0.90;;;6.90;99.90;;;;;;5061859;28;20430;-81
2023/11/07 06:52:51;;;;;;;2.53;1.10;;;7.00;99.90;;;;;;5061651;28;20028;-81
2023/11/07 06:55:21;;;;;;;1.30;1.00;;;7.00;99.90;;;;;;5059423;28;20028;-79
2023/11/07 06:57:47;;;;;;;1.57;1.03;;;7.10;99.90;;;;;;5061081;28;20020;-80
2023/11/07 07:00:12;;;;;;;2.43;1.37;;;7.10;99.90;;;;;;5061748;28;20028;-83
2023/11/07 07:02:42;;;;;;;2.07;1.00;;;7.10;99.90;;;;;;5062323;28;20066;-80
2023/11/07 07:05:12;;;;;;;2.43;1.30;;;7.20;99.90;;;;;;5055790;28;20052;-80
2023/11/07 07:07:40;;;;;;;1.40;1.00;;;7.20;99.90;;;;;;5058777;28;20041;-80
2023/11/07 07:10:07;;;;;;;3.33;0.87;;;7.20;99.90;;;;;;5056180;28;20506;-80
2023/11/07 07:12:33;;;;;;;1.40;0.90;;;7.30;99.90;;;;;;5056882;28;20048;-79
2023/11/07 07:14:59;;;;;;;4.20;1.00;;;7.30;99.90;;;;;;5057065;28;20032;-80
2023/11/07 07:17:25;;;;;;;3.30;1.30;;;7.30;99.90;;;;;;5057402;28;20145;-80
2023/11/07 07:19:53;;;;;;;1.93;1.10;;;7.30;99.90;;;;;;5057080;28;20381;-80
2023/11/07 07:22:27;;;;;;;3.50;1.10;;;7.30;99.90;;;;;;5054658;28;20033;-79
2023/11/07 07:24:54;;;;;;;2.00;1.20;;;7.40;99.90;;;;;;5054230;28;20546;-80
2023/11/07 07:27:21;;;;;;;3.03;0.90;;;7.40;99.90;;;;;;5056540;28;20128;-81
2023/11/07 07:29:47;;;;;;;3.43;1.40;;;7.40;99.90;;;;;;5036304;28;20028;-80
2023/11/07 07:32:12;;;;;;;3.80;1.30;;;7.40;99.90;;;;;;5056444;28;20024;-80
2023/11/07 07:34:40;;;;;;;2.67;1.30;;;7.50;99.90;;;;;;5056362;28;20017;-80
2023/11/07 07:37:06;;;;;;;1.60;1.17;;;7.50;99.90;;;;;;5055608;28;20061;-80
2023/11/07 07:39:32;;;;;;;1.70;1.10;;;7.60;99.90;;;;;;5055997;28;20099;-80
2023/11/07 07:42:00;;;;;;;2.90;1.23;;;7.60;99.90;;;;;;5057199;28;20066;-80
2023/11/07 07:44:26;;;;;;;3.17;1.10;;;7.70;99.90;;;;;;5055738;28;20029;-80
2023/11/07 07:46:56;;;;;;;2.13;1.10;;;7.80;99.90;;;;;;5053966;28;20066;-80
2023/11/07 07:49:26;;;;;;;2.30;1.00;;;7.90;99.90;;;;;;5056923;28;21040;-80
2023/11/07 07:51:54;;;;;;;2.40;1.30;;;7.90;99.90;;;;;;5058937;28;21731;-79
2023/11/07 07:54:22;;;;;;;2.40;1.60;;;8.00;99.90;;;;;;5058083;28;20032;-81
2023/11/07 07:56:51;;;;;;;5.30;1.70;;;8.00;99.90;;;;;;5056623;28;20033;-81
2023/11/07 07:59:23;;;;;;;2.50;1.40;;;8.10;99.90;;;;;;5055954;28;20031;-81
2023/11/07 08:01:58;;;;;;;2.53;1.30;;;8.10;99.90;;;;;;5051059;28;20100;-81
2023/11/07 08:04:25;;;;;;;3.27;1.20;;;8.20;99.90;;;;;;5054694;28;20032;-82
2023/11/07 08:06:52;;;;;;;3.13;1.80;;;8.20;99.90;;;;;;5044592;28;20059;-82
2023/11/07 08:09:18;;;;;;;2.87;1.40;;;8.30;99.90;;;;;;5050024;28;20502;-82
2023/11/07 08:12:08;;;;;;;2.43;1.60;;;8.30;99.90;;;;;;5052346;28;20090;-81
2023/11/07 08:14:35;;;;;;;3.77;1.90;;;8.40;99.90;;;;;;5052963;28;20017;-81
2023/11/07 08:17:01;;;;;;;4.43;1.70;;;8.40;99.90;;;;;;5048760;28;20762;-82
2023/11/07 08:19:27;;;;;;;3.83;1.77;;;8.50;99.90;;;;;;5046542;28;20028;-81
2023/11/07 08:21:53;;;;;;;5.17;1.63;;;8.50;99.90;;;;;;5047463;28;20159;-82
2023/11/07 08:24:18;;;;;;;2.17;1.50;;;8.50;99.90;;;;;;5048134;28;20060;-81
2023/11/07 08:26:44;;;;;;;1.50;1.00;;;8.50;99.90;;;;;;5047732;28;20041;-82
2023/11/07 08:29:11;;;;;;;4.07;1.37;;;8.50;99.90;;;;;;5046338;28;20021;-81
2023/11/07 08:31:37;;;;;;;1.60;1.30;;;8.50;99.90;;;;;;5045831;28;20044;-81
2023/11/07 08:34:09;;;;;;;2.03;1.23;;;8.50;99.90;;;;;;5046643;28;20075;-81
2023/11/07 08:36:37;;;;;;;5.17;1.50;;;8.60;99.90;;;;;;5046113;28;20115;-81
2023/11/07 08:39:03;;;;;;;2.00;1.20;;;8.60;99.90;;;;;;5048381;28;20077;-81
2023/11/07 08:41:29;;;;;;;2.83;1.63;;;8.60;99.90;;;;;;5044258;28;20040;-81
2023/11/07 08:43:54;;;;;;;1.80;1.10;;;8.70;99.90;;;;;;5046201;28;20641;-81
2023/11/07 08:46:20;;;;;;;2.10;0.97;;;8.70;99.90;;;;;;5047057;28;20127;-81
2023/11/07 08:48:46;;;;;;;1.80;1.03;;;8.80;99.90;;;;;;5048157;28;20380;-81
2023/11/07 08:51:14;;;;;;;1.43;0.97;;;8.90;99.90;;;;;;5047328;28;20048;-81
2023/11/07 08:53:44;;;;;;;3.03;1.20;;;9.00;99.90;;;;;;5046042;28;20025;-81
2023/11/07 08:56:12;;;;;;;3.20;1.10;;;9.10;99.90;;;;;;5046833;28;20048;-81
2023/11/07 08:58:38;;;;;;;2.27;1.30;;;9.20;99.90;;;;;;5045716;28;20098;-81
2023/11/07 09:01:04;;;;;;;3.60;1.30;;;9.30;99.90;;;;;;5047088;28;20052;-82
2023/11/07 09:03:31;;;;;;;2.90;1.33;;;9.30;99.90;;;;;;5047954;28;20059;-81
2023/11/07 09:05:56;;;;;;;2.90;1.17;;;9.30;99.90;;;;;;5046559;28;20090;-81
2023/11/07 09:08:22;;;;;;;1.90;1.00;;;9.30;99.90;;;;;;5046973;28;20021;-81
2023/11/07 09:10:48;;;;;;;2.20;1.30;;;9.30;99.90;;;;;;5047200;28;21496;-81
2023/11/07 09:13:14;;;;;;;1.87;0.97;;;9.30;99.90;;;;;;5045736;28;20019;-82
2023/11/07 09:15:41;;;;;;;4.30;1.20;;;9.30;99.90;;;;;;5046939;28;20060;-81
2023/11/07 09:18:07;;;;;;;1.83;1.00;;;9.30;99.90;;;;;;5046209;28;20036;-82
2023/11/07 09:20:34;;;;;;;2.00;1.10;;;9.40;99.90;;;;;;5046251;28;20494;-81
2023/11/07 09:23:04;;;;;;;2.27;1.00;;;9.40;99.90;;;;;;5044642;28;20039;-82
2023/11/07 09:25:29;;;;;;;2.40;0.97;;;9.40;99.90;;;;;;5046341;28;20029;-81
2023/11/07 09:27:55;;;;;;;2.53;1.40;;;9.60;99.90;;;;;;5045350;28;20026;-81
2023/11/07 09:30:20;;;;;;;2.07;1.10;;;9.70;99.90;;;;;;5051288;28;20246;-81
2023/11/07 09:32:48;;;;;;;2.50;1.20;;;9.70;99.90;;;;;;5047532;28;20507;-81
2023/11/07 09:35:14;;;;;;;2.10;1.23;;;9.70;99.90;;;;;;5047114;28;20166;-81
2023/11/07 09:37:39;;;;;;;3.30;1.20;;;9.70;99.90;;;;;;5062015;28;20041;-80
2023/11/07 09:40:19;;;;;;;2.37;0.90;;;9.80;99.90;;;;;;5065229;28;20033;-81
2023/11/07 09:42:44;;;;;;;1.67;1.10;;;9.80;99.90;;;;;;5065190;28;20041;-81
2023/11/07 09:45:14;;;;;;;3.97;1.23;;;9.80;99.90;;;;;;5062602;28;20153;-80
2023/11/07 09:47:45;;;;;;;3.40;1.60;;;9.80;99.90;;;;;;5047363;28;20088;-81
2023/11/07 09:50:11;;;;;;;2.77;1.40;;;9.90;99.90;;;;;;5051014;28;20048;-80
2023/11/07 09:52:39;;;;;;;1.90;0.97;;;9.90;99.90;;;;;;5053291;28;20155;-81
2023/11/07 09:55:08;;;;;;;2.27;1.03;;;9.90;99.90;;;;;;5053243;28;20020;-81
2023/11/07 09:57:59;;;;;;;1.43;1.00;;;10.00;99.90;;;;;;5053612;28;20772;-81
2023/11/07 10:00:25;;;;;;;4.43;1.30;;;9.90;99.90;;;;;;5052842;28;20388;-81
2023/11/07 10:02:51;;;;;;;2.67;1.27;;;10.00;99.90;;;;;;5050856;28;20049;-81
2023/11/07 10:05:20;;;;;;;3.13;1.20;;;10.00;99.90;;;;;;5051178;28;20522;-82
2023/11/07 10:07:49;;;;;;;1.67;1.10;;;10.00;99.90;;;;;;5052440;28;20028;-81
2023/11/07 10:10:16;;;;;;;2.53;1.20;;;10.10;99.90;;;;;;5052962;28;20032;-81
2023/11/07 10:12:45;;;;;;;2.77;1.30;;;10.00;99.90;;;;;;5050170;28;20052;-81
2023/11/07 10:15:18;;;;;;;4.10;1.07;;;10.10;99.90;;;;;;5053084;28;20042;-82
2023/11/07 10:18:15;;;;;;;2.63;0.93;;;10.10;99.90;;;;;;5053382;28;20131;-81
2023/11/07 10:20:49;;;;;;;3.20;1.20;;;10.00;99.90;;;;;;5052082;28;20040;-80
2023/11/07 10:23:15;;;;;;;1.23;0.80;;;10.00;99.90;;;;;;5047443;28;20064;-80
2023/11/07 10:25:40;;;;;;;2.10;0.93;;;10.10;99.90;;;;;;5057762;28;20502;-82
2023/11/07 10:28:08;;;;;;;3.77;1.07;;;10.10;99.90;;;;;;5059786;28;20075;-81
2023/11/07 10:30:44;;;;;;;1.60;0.90;;;10.00;99.90;;;;;;5061517;28;20088;-82
2023/11/07 10:33:32;;;;;;;2.40;1.30;;;10.00;99.90;;;;;;5062321;28;20036;-81
2023/11/07 10:36:04;;;;;;;2.07;1.03;;;10.00;99.90;;;;;;5061939;28;20158;-81
2023/11/07 10:38:29;;;;;;;3.10;1.20;;;10.00;99.90;;;;;;5059746;28;20025;-82
2023/11/07 10:40:55;;;;;;;3.63;0.97;;;10.00;99.90;;;;;;5060900;28;20027;-81
2023/11/07 10:43:38;;;;;;;5.07;1.10;;;10.10;99.90;;;;;;5062746;28;20033;-81
2023/11/07 10:46:04;;;;;;;2.60;1.47;;;10.10;99.90;;;;;;5060615;28;20027;-83
2023/11/07 10:48:37;;;;;;;3.07;1.30;;;10.10;99.90;;;;;;5060843;28;20032;-82
2023/11/07 10:51:04;;;;;;;3.53;1.70;;;10.10;99.90;;;;;;5059488;28;20098;-82
2023/11/07 10:53:33;;;;;;;4.13;1.80;;;10.20;99.90;;;;;;5060571;28;20021;-83
2023/11/07 10:56:00;;;;;;;4.07;1.80;;;10.30;99.90;;;;;;5060357;28;20048;-82
2023/11/07 10:58:32;;;;;;;11.33;5.07;;;10.40;99.90;;;;;;5059747;28;20032;-83
2023/11/07 11:01:02;;;;;;;3.10;1.90;;;10.50;99.90;;;;;;5056493;28;20048;-82
2023/11/07 11:03:29;;;;;;;3.10;1.93;;;10.50;99.90;;;;;;5057424;28;20032;-82
2023/11/07 11:05:54;;;;;;;2.30;1.60;;;10.60;99.90;;;;;;5058308;28;20033;-82
2023/11/07 11:08:23;;;;;;;6.13;1.30;;;10.60;99.90;;;;;;5065777;28;20094;-82
2023/11/07 11:10:52;;;;;;;2.33;1.43;;;10.70;99.90;;;;;;5069207;28;20076;-82
2023/11/07 11:13:23;;;;;;;1.87;1.13;;;10.70;99.90;;;;;;5067456;28;20028;-82
2023/11/07 11:15:50;;;;;;;1.73;1.23;;;10.80;99.90;;;;;;5059284;28;20042;-82
2023/11/07 11:18:23;;;;;;;3.03;1.30;;;10.80;99.90;;;;;;5060069;28;20518;-82
2023/11/07 11:21:02;;;;;;;2.87;1.33;;;10.80;99.90;;;;;;5059811;28;20024;-82
2023/11/07 11:23:58;;;;;;;4.20;1.27;;;10.80;99.90;;;;;;5057802;28;20114;-80
2023/11/07 11:26:23;;;;;;;4.70;1.40;;;10.90;99.90;;;;;;5058253;28;20039;-80
2023/11/07 11:28:50;;;;;;;3.00;1.27;;;10.90;99.90;;;;;;5056353;28;20051;-80
2023/11/07 11:31:24;;;;;;;5.77;1.30;;;10.90;99.90;;;;;;5057115;28;20491;-80
2023/11/07 11:34:36;;;;;;;3.73;1.70;;;10.90;99.90;;;;;;5058976;28;20479;-79
2023/11/07 11:37:01;;;;;;;2.22;1.00;;;10.90;99.90;;;;;;5056851;28;20032;-83
2023/11/07 11:39:30;;;;;;;3.00;1.10;;;10.90;99.90;;;;;;5060054;28;20028;-82
2023/11/07 11:42:05;;;;;;;1.97;1.03;;;10.90;99.90;;;;;;5061674;28;20962;-81
2023/11/07 11:44:31;;;;;;;3.60;1.15;;;11.00;99.90;;;;;;5058877;28;20070;-82
2023/11/07 11:46:57;;;;;;;3.70;1.50;;;11.00;99.90;;;;;;5056533;28;20031;-82
2023/11/07 11:49:23;;;;;;;2.40;1.00;;;11.00;99.90;;;;;;5060207;28;20025;-82
2023/11/07 11:51:51;;;;;;;1.05;0.73;;;11.00;99.90;;;;;;5061013;28;20085;-82
2023/11/07 11:54:26;;;;;;;2.23;1.07;;;11.00;99.90;;;;;;5059458;28;20049;-83
2023/11/07 11:56:53;;;;;;;1.85;1.08;;;11.00;99.90;;;;;;5056639;28;20035;-82
2023/11/07 11:59:28;;;;;;;1.70;1.00;;;11.00;99.90;;;;;;5057865;28;21461;-82
2023/11/07 12:01:58;;;;;;;2.42;1.17;;;11.10;99.90;;;;;;5057842;28;20048;-82
2023/11/07 12:04:37;;;;;;;1.75;0.80;;;11.10;99.90;;;;;;5054472;28;20016;-83
2023/11/07 12:07:14;;;;;;;1.20;0.90;;;11.10;99.90;;;;;;5055840;28;20028;-82
2023/11/07 12:09:45;;;;;;;2.22;1.00;;;11.10;99.90;;;;;;5057043;28;20040;-83
2023/11/07 12:12:14;;;;;;;1.77;0.80;;;11.10;99.90;;;;;;5055860;28;20033;-81
2023/11/07 12:14:59;;;;;;;2.20;0.83;;;11.20;99.90;;;;;;5056677;28;20036;-83
2023/11/07 12:17:28;;;;;;;1.13;0.80;;;11.00;99.90;;;;;;5056452;28;20031;-80
2023/11/07 12:20:06;;;;;;;2.07;1.00;;;11.00;99.90;;;;;;5056904;28;20050;-82
2023/11/07 12:22:35;;;;;;;7.00;3.00;;;11.00;99.90;;;;;;5059006;28;20118;-80
2023/11/07 12:25:13;;;;;;;3.63;1.20;;;10.90;99.90;;;;;;5057561;28;20040;-80
2023/11/07 12:28:02;;;;;;;2.47;1.20;;;10.90;99.90;;;;;;5057187;28;20032;-80
2023/11/07 12:30:28;;;;;;;2.33;1.00;;;11.00;99.90;;;;;;5057326;28;20063;-81
2023/11/07 12:33:10;;;;;;;2.53;1.00;;;11.10;99.90;;;;;;5057768;28;20120;-80
2023/11/07 12:35:37;;;;;;;2.23;1.07;;;11.20;99.90;;;;;;5056047;28;20029;-82
2023/11/07 12:38:07;;;;;;;3.05;1.17;;;11.30;99.90;;;;;;5054482;28;20037;-80
2023/11/07 12:40:35;;;;;;;4.55;1.35;;;11.50;99.90;;;;;;5060698;28;20600;-80
2023/11/07 12:43:01;;;;;;;2.33;0.90;;;11.50;99.90;;;;;;5058825;28;20596;-79
2023/11/07 12:45:31;;;;;;;1.83;1.10;;;11.60;99.90;;;;;;5055486;28;20029;-81
2023/11/07 12:48:03;;;;;;;3.10;1.13;;;11.70;99.90;;;;;;5057991;28;20025;-81
2023/11/07 12:50:33;;;;;;;2.00;1.17;;;11.70;99.90;;;;;;5057939;28;20020;-80
2023/11/07 12:53:02;;;;;;;2.53;1.20;;;11.80;99.90;;;;;;5057111;28;20183;-81
2023/11/07 12:55:28;;;;;;;3.40;1.05;;;11.70;99.90;;;;;;5056521;28;20032;-80
2023/11/07 12:57:59;;;;;;;1.45;1.00;;;11.70;99.90;;;;;;5057466;28;20162;-81